sensor_id;sensor_type;location;lat;lon;timestamp;temperature;humidity
29687;DHT22;16599;47.078;15.536;2023-08-31T00:02:02;14.40;99.90
29687;DHT22;16599;47.078;15.536;2023-08-31T00:04:30;14.40;99.90
29687;DHT22;16599;47.078;15.536;2023-08-31T00:06:57;14.50;99.90
29687;DHT22;16599;47.078;15.536;2023-08-31T00:09:24;14.40;99.90
29687;DHT22;16599;47.078;15.536;2023-08-31T00:11:51;14.40;99.90
29687;DHT22;16599;47.078;15.536;2023-08-31T00:14:18;14.40;99.90
29687;DHT22;16599;47.078;15.536;2023-08-31T00:16:45;14.50;99.90
29687;DHT22;16599;47.078;15.536;2023-08-31T00:19:14;14.50;99.90
29687;DHT22;16599;47.078;15.536;2023-08-31T00:21:42;14.50;99.90
29687;DHT22;16599;47.078;15.536;2023-08-31T00:24:09;14.50;99.90
29687;DHT22;16599;47.078;15.536;2023-08-31T00:26:37;14.50;99.90
29687;DHT22;16599;47.078;15.536;2023-08-31T00:29:09;14.50;99.90
29687;DHT22;16599;47.078;15.536;2023-08-31T00:31:36;14.40;99.90
29687;DHT22;16599;47.078;15.536;2023-08-31T00:34:03;14.40;99.90
29687;DHT22;16599;47.078;15.536;2023-08-31T00:36:31;14.40;99.90
29687;DHT22;16599;47.078;15.536;2023-08-31T00:38:58;14.40;99.90
29687;DHT22;16599;47.078;15.536;2023-08-31T00:41:25;14.40;99.90
29687;DHT22;16599;47.078;15.536;2023-08-31T00:43:52;14.40;99.90
29687;DHT22;16599;47.078;15.536;2023-08-31T00:46:19;14.30;99.90
29687;DHT22;16599;47.078;15.536;2023-08-31T00:48:46;14.30;99.90
29687;DHT22;16599;47.078;15.536;2023-08-31T00:51:13;14.30;99.90
29687;DHT22;16599;47.078;15.536;2023-08-31T00:53:40;14.30;99.90
29687;DHT22;16599;47.078;15.536;2023-08-31T00:56:08;14.30;99.90
29687;DHT22;16599;47.078;15.536;2023-08-31T00:58:35;14.30;99.90
29687;DHT22;16599;47.078;15.536;2023-08-31T01:01:11;14.20;99.90
29687;DHT22;16599;47.078;15.536;2023-08-31T01:11:31;14.10;99.90
29687;DHT22;16599;47.078;15.536;2023-08-31T01:14:10;14.10;99.90
29687;DHT22;16599;47.078;15.536;2023-08-31T01:16:40;14.10;99.90
29687;DHT22;16599;47.078;15.536;2023-08-31T01:21:51;14.00;99.90
29687;DHT22;16599;47.078;15.536;2023-08-31T01:24:22;14.00;99.90
29687;DHT22;16599;47.078;15.536;2023-08-31T01:26:51;14.00;99.90
29687;DHT22;16599;47.078;15.536;2023-08-31T01:29:19;14.00;99.90
29687;DHT22;16599;47.078;15.536;2023-08-31T01:31:46;14.10;99.90
29687;DHT22;16599;47.078;15.536;2023-08-31T01:34:13;14.10;99.90
29687;DHT22;16599;47.078;15.536;2023-08-31T01:36:45;14.10;99.90
29687;DHT22;16599;47.078;15.536;2023-08-31T01:39:29;14.00;99.90
29687;DHT22;16599;47.078;15.536;2023-08-31T01:42:03;14.00;99.90
29687;DHT22;16599;47.078;15.536;2023-08-31T01:44:35;13.90;99.90
29687;DHT22;16599;47.078;15.536;2023-08-31T01:47:04;13.90;99.90
29687;DHT22;16599;47.078;15.536;2023-08-31T01:49:38;13.90;99.90
29687;DHT22;16599;47.078;15.536;2023-08-31T01:52:06;14.00;99.90
29687;DHT22;16599;47.078;15.536;2023-08-31T01:54:33;14.00;99.90
29687;DHT22;16599;47.078;15.536;2023-08-31T01:57:00;13.90;99.90
29687;DHT22;16599;47.078;15.536;2023-08-31T01:59:27;13.90;99.90
29687;DHT22;16599;47.078;15.536;2023-08-31T02:01:54;13.90;99.90
29687;DHT22;16599;47.078;15.536;2023-08-31T02:04:20;13.80;99.90
29687;DHT22;16599;47.078;15.536;2023-08-31T02:06:47;13.80;99.90
29687;DHT22;16599;47.078;15.536;2023-08-31T02:09:14;13.80;99.90
29687;DHT22;16599;47.078;15.536;2023-08-31T02:11:42;13.80;99.90
29687;DHT22;16599;47.078;15.536;2023-08-31T02:14:08;13.80;99.90
29687;DHT22;16599;47.078;15.536;2023-08-31T02:16:35;13.80;99.90
29687;DHT22;16599;47.078;15.536;2023-08-31T02:19:02;13.80;99.90
29687;DHT22;16599;47.078;15.536;2023-08-31T02:21:29;13.80;99.90
29687;DHT22;16599;47.078;15.536;2023-08-31T02:23:56;13.80;99.90
29687;DHT22;16599;47.078;15.536;2023-08-31T02:26:23;13.80;99.90
29687;DHT22;16599;47.078;15.536;2023-08-31T02:28:49;13.80;99.90
29687;DHT22;16599;47.078;15.536;2023-08-31T02:31:17;13.70;99.90
29687;DHT22;16599;47.078;15.536;2023-08-31T02:33:46;13.80;99.90
29687;DHT22;16599;47.078;15.536;2023-08-31T02:36:13;13.80;99.90
29687;DHT22;16599;47.078;15.536;2023-08-31T02:38:40;13.70;99.90
29687;DHT22;16599;47.078;15.536;2023-08-31T02:41:07;13.70;99.90
29687;DHT22;16599;47.078;15.536;2023-08-31T02:43:34;13.70;99.90
29687;DHT22;16599;47.078;15.536;2023-08-31T02:46:02;13.70;99.90
29687;DHT22;16599;47.078;15.536;2023-08-31T02:48:29;13.80;99.90
29687;DHT22;16599;47.078;15.536;2023-08-31T02:50:57;13.80;99.90
29687;DHT22;16599;47.078;15.536;2023-08-31T02:53:25;13.80;99.90
29687;DHT22;16599;47.078;15.536;2023-08-31T02:55:52;13.80;99.90
29687;DHT22;16599;47.078;15.536;2023-08-31T02:58:18;13.80;99.90
29687;DHT22;16599;47.078;15.536;2023-08-31T03:00:45;13.80;99.90
29687;DHT22;16599;47.078;15.536;2023-08-31T03:03:16;13.80;99.90
29687;DHT22;16599;47.078;15.536;2023-08-31T03:05:44;13.70;99.90
29687;DHT22;16599;47.078;15.536;2023-08-31T03:08:11;13.60;99.90
29687;DHT22;16599;47.078;15.536;2023-08-31T03:10:38;13.70;99.90
29687;DHT22;16599;47.078;15.536;2023-08-31T03:13:05;13.70;99.90
29687;DHT22;16599;47.078;15.536;2023-08-31T03:15:33;13.70;99.90
29687;DHT22;16599;47.078;15.536;2023-08-31T03:18:03;13.70;99.90
29687;DHT22;16599;47.078;15.536;2023-08-31T03:20:30;13.60;99.90
29687;DHT22;16599;47.078;15.536;2023-08-31T03:22:57;13.50;99.90
29687;DHT22;16599;47.078;15.536;2023-08-31T03:25:24;13.40;99.90
29687;DHT22;16599;47.078;15.536;2023-08-31T03:27:51;13.50;99.90
29687;DHT22;16599;47.078;15.536;2023-08-31T03:30:18;13.50;99.90
29687;DHT22;16599;47.078;15.536;2023-08-31T03:32:45;13.50;99.90
29687;DHT22;16599;47.078;15.536;2023-08-31T03:35:12;13.40;99.90
29687;DHT22;16599;47.078;15.536;2023-08-31T03:37:39;13.30;99.90
29687;DHT22;16599;47.078;15.536;2023-08-31T03:40:06;13.40;99.90
29687;DHT22;16599;47.078;15.536;2023-08-31T03:42:34;13.40;99.90
29687;DHT22;16599;47.078;15.536;2023-08-31T03:45:01;13.50;99.90
29687;DHT22;16599;47.078;15.536;2023-08-31T03:47:30;13.50;99.90
29687;DHT22;16599;47.078;15.536;2023-08-31T03:49:57;13.40;99.90
29687;DHT22;16599;47.078;15.536;2023-08-31T03:52:24;13.40;99.90
29687;DHT22;16599;47.078;15.536;2023-08-31T03:54:51;13.40;99.90
29687;DHT22;16599;47.078;15.536;2023-08-31T03:57:19;13.40;99.90
29687;DHT22;16599;47.078;15.536;2023-08-31T03:59:46;13.40;99.90
29687;DHT22;16599;47.078;15.536;2023-08-31T04:02:13;13.40;99.90
29687;DHT22;16599;47.078;15.536;2023-08-31T04:04:40;13.40;99.90
29687;DHT22;16599;47.078;15.536;2023-08-31T04:07:07;13.30;99.90
29687;DHT22;16599;47.078;15.536;2023-08-31T04:09:34;13.30;99.90
29687;DHT22;16599;47.078;15.536;2023-08-31T04:12:01;13.40;99.90
29687;DHT22;16599;47.078;15.536;2023-08-31T04:14:28;13.30;99.90
29687;DHT22;16599;47.078;15.536;2023-08-31T04:16:55;13.30;99.90
29687;DHT22;16599;47.078;15.536;2023-08-31T04:19:22;13.40;99.90
29687;DHT22;16599;47.078;15.536;2023-08-31T04:21:49;13.40;99.90
29687;DHT22;16599;47.078;15.536;2023-08-31T04:24:16;13.40;99.90
29687;DHT22;16599;47.078;15.536;2023-08-31T04:26:43;13.40;99.90
29687;DHT22;16599;47.078;15.536;2023-08-31T04:29:11;13.40;99.90
29687;DHT22;16599;47.078;15.536;2023-08-31T04:31:38;13.40;99.90
29687;DHT22;16599;47.078;15.536;2023-08-31T04:34:06;13.30;99.90
29687;DHT22;16599;47.078;15.536;2023-08-31T04:36:34;13.20;99.90
29687;DHT22;16599;47.078;15.536;2023-08-31T04:39:00;13.20;99.90
29687;DHT22;16599;47.078;15.536;2023-08-31T04:41:27;13.30;99.90
29687;DHT22;16599;47.078;15.536;2023-08-31T04:43:54;13.10;99.90
29687;DHT22;16599;47.078;15.536;2023-08-31T04:46:21;13.10;99.90
29687;DHT22;16599;47.078;15.536;2023-08-31T04:48:48;13.20;99.90
29687;DHT22;16599;47.078;15.536;2023-08-31T04:51:32;13.20;99.90
29687;DHT22;16599;47.078;15.536;2023-08-31T04:53:59;13.10;99.90
29687;DHT22;16599;47.078;15.536;2023-08-31T04:56:33;13.00;99.90
29687;DHT22;16599;47.078;15.536;2023-08-31T04:59:00;12.90;99.90
29687;DHT22;16599;47.078;15.536;2023-08-31T05:01:27;13.10;99.90
29687;DHT22;16599;47.078;15.536;2023-08-31T05:03:54;13.30;99.90
29687;DHT22;16599;47.078;15.536;2023-08-31T05:06:21;13.40;99.90
29687;DHT22;16599;47.078;15.536;2023-08-31T05:08:49;13.50;99.90
29687;DHT22;16599;47.078;15.536;2023-08-31T05:11:16;13.50;99.90
29687;DHT22;16599;47.078;15.536;2023-08-31T05:13:43;13.60;99.90
29687;DHT22;16599;47.078;15.536;2023-08-31T05:16:10;13.60;99.90
29687;DHT22;16599;47.078;15.536;2023-08-31T05:18:38;13.60;99.90
29687;DHT22;16599;47.078;15.536;2023-08-31T05:21:06;13.60;99.90
29687;DHT22;16599;47.078;15.536;2023-08-31T05:23:33;13.60;99.90
29687;DHT22;16599;47.078;15.536;2023-08-31T05:26:00;13.60;99.90
29687;DHT22;16599;47.078;15.536;2023-08-31T05:28:28;13.50;99.90
29687;DHT22;16599;47.078;15.536;2023-08-31T05:31:00;13.60;99.90
29687;DHT22;16599;47.078;15.536;2023-08-31T05:33:28;13.60;99.90
29687;DHT22;16599;47.078;15.536;2023-08-31T05:35:57;13.60;99.90
29687;DHT22;16599;47.078;15.536;2023-08-31T05:38:23;13.50;99.90
29687;DHT22;16599;47.078;15.536;2023-08-31T05:40:50;13.40;99.90
29687;DHT22;16599;47.078;15.536;2023-08-31T05:43:17;13.40;99.90
29687;DHT22;16599;47.078;15.536;2023-08-31T05:45:44;13.50;99.90
29687;DHT22;16599;47.078;15.536;2023-08-31T05:48:13;13.60;99.90
29687;DHT22;16599;47.078;15.536;2023-08-31T05:50:41;13.70;99.90
29687;DHT22;16599;47.078;15.536;2023-08-31T05:53:10;13.70;99.90
29687;DHT22;16599;47.078;15.536;2023-08-31T05:55:37;13.80;99.90
29687;DHT22;16599;47.078;15.536;2023-08-31T05:58:04;13.80;99.90
29687;DHT22;16599;47.078;15.536;2023-08-31T06:00:31;13.80;99.90
29687;DHT22;16599;47.078;15.536;2023-08-31T06:02:58;13.90;99.90
29687;DHT22;16599;47.078;15.536;2023-08-31T06:05:25;13.90;99.90
29687;DHT22;16599;47.078;15.536;2023-08-31T06:07:52;13.90;99.90
29687;DHT22;16599;47.078;15.536;2023-08-31T06:10:19;14.00;99.90
29687;DHT22;16599;47.078;15.536;2023-08-31T06:12:46;14.00;99.90
29687;DHT22;16599;47.078;15.536;2023-08-31T06:15:13;14.00;99.90
29687;DHT22;16599;47.078;15.536;2023-08-31T06:17:42;14.10;99.90
29687;DHT22;16599;47.078;15.536;2023-08-31T06:20:09;14.00;99.90
29687;DHT22;16599;47.078;15.536;2023-08-31T06:22:36;14.10;99.90
29687;DHT22;16599;47.078;15.536;2023-08-31T06:25:03;14.10;99.90
29687;DHT22;16599;47.078;15.536;2023-08-31T06:27:32;14.10;99.90
29687;DHT22;16599;47.078;15.536;2023-08-31T06:29:59;14.10;99.90
29687;DHT22;16599;47.078;15.536;2023-08-31T06:32:25;14.20;99.90
29687;DHT22;16599;47.078;15.536;2023-08-31T06:34:54;14.20;99.90
29687;DHT22;16599;47.078;15.536;2023-08-31T06:37:21;14.20;99.90
29687;DHT22;16599;47.078;15.536;2023-08-31T06:39:48;14.30;99.90
29687;DHT22;16599;47.078;15.536;2023-08-31T06:42:15;14.40;99.90
29687;DHT22;16599;47.078;15.536;2023-08-31T06:44:41;14.40;99.90
29687;DHT22;16599;47.078;15.536;2023-08-31T06:47:09;14.50;99.90
29687;DHT22;16599;47.078;15.536;2023-08-31T06:49:36;14.50;99.90
29687;DHT22;16599;47.078;15.536;2023-08-31T06:52:03;14.50;99.90
29687;DHT22;16599;47.078;15.536;2023-08-31T06:54:54;14.50;99.90
29687;DHT22;16599;47.078;15.536;2023-08-31T06:57:24;14.60;99.90
29687;DHT22;16599;47.078;15.536;2023-08-31T06:59:51;14.60;99.90
29687;DHT22;16599;47.078;15.536;2023-08-31T07:02:18;14.70;99.90
29687;DHT22;16599;47.078;15.536;2023-08-31T07:04:52;14.80;99.90
29687;DHT22;16599;47.078;15.536;2023-08-31T07:07:19;14.90;99.90
29687;DHT22;16599;47.078;15.536;2023-08-31T07:09:47;14.80;99.90
29687;DHT22;16599;47.078;15.536;2023-08-31T07:12:15;14.90;99.90
29687;DHT22;16599;47.078;15.536;2023-08-31T07:14:42;15.10;99.90
29687;DHT22;16599;47.078;15.536;2023-08-31T07:17:09;15.20;99.90
29687;DHT22;16599;47.078;15.536;2023-08-31T07:19:36;15.20;99.90
29687;DHT22;16599;47.078;15.536;2023-08-31T07:22:04;15.30;99.90
29687;DHT22;16599;47.078;15.536;2023-08-31T07:24:33;15.40;99.90
29687;DHT22;16599;47.078;15.536;2023-08-31T07:27:05;15.40;99.90
29687;DHT22;16599;47.078;15.536;2023-08-31T07:29:32;15.50;99.90
29687;DHT22;16599;47.078;15.536;2023-08-31T07:31:59;15.70;99.90
29687;DHT22;16599;47.078;15.536;2023-08-31T07:34:26;15.60;99.90
29687;DHT22;16599;47.078;15.536;2023-08-31T07:36:53;15.60;99.90
29687;DHT22;16599;47.078;15.536;2023-08-31T07:39:21;15.70;99.90
29687;DHT22;16599;47.078;15.536;2023-08-31T07:41:47;15.80;99.90
29687;DHT22;16599;47.078;15.536;2023-08-31T07:44:16;15.80;99.90
29687;DHT22;16599;47.078;15.536;2023-08-31T07:46:43;15.80;99.90
29687;DHT22;16599;47.078;15.536;2023-08-31T07:49:10;15.90;99.90
29687;DHT22;16599;47.078;15.536;2023-08-31T07:51:37;16.20;99.90
29687;DHT22;16599;47.078;15.536;2023-08-31T07:54:04;16.30;99.90
29687;DHT22;16599;47.078;15.536;2023-08-31T07:56:31;16.50;99.90
29687;DHT22;16599;47.078;15.536;2023-08-31T07:58:58;16.50;99.90
29687;DHT22;16599;47.078;15.536;2023-08-31T08:01:25;16.60;99.90
29687;DHT22;16599;47.078;15.536;2023-08-31T08:03:52;16.70;99.90
29687;DHT22;16599;47.078;15.536;2023-08-31T08:06:19;16.70;99.90
29687;DHT22;16599;47.078;15.536;2023-08-31T08:08:46;16.70;99.90
29687;DHT22;16599;47.078;15.536;2023-08-31T08:11:13;16.90;99.90
29687;DHT22;16599;47.078;15.536;2023-08-31T08:13:40;16.80;99.90
29687;DHT22;16599;47.078;15.536;2023-08-31T08:16:06;16.80;99.90
29687;DHT22;16599;47.078;15.536;2023-08-31T08:18:35;16.70;99.90
29687;DHT22;16599;47.078;15.536;2023-08-31T08:21:02;16.70;99.90
29687;DHT22;16599;47.078;15.536;2023-08-31T08:23:30;16.90;99.90
29687;DHT22;16599;47.078;15.536;2023-08-31T08:25:57;16.90;99.90
29687;DHT22;16599;47.078;15.536;2023-08-31T08:28:26;17.20;99.90
29687;DHT22;16599;47.078;15.536;2023-08-31T08:30:53;17.30;99.90
29687;DHT22;16599;47.078;15.536;2023-08-31T08:33:20;17.30;99.90
29687;DHT22;16599;47.078;15.536;2023-08-31T08:35:47;17.40;99.90
29687;DHT22;16599;47.078;15.536;2023-08-31T08:38:14;17.70;99.90
29687;DHT22;16599;47.078;15.536;2023-08-31T08:40:41;17.80;99.90
29687;DHT22;16599;47.078;15.536;2023-08-31T08:43:08;17.70;99.90
29687;DHT22;16599;47.078;15.536;2023-08-31T08:45:38;17.90;99.90
29687;DHT22;16599;47.078;15.536;2023-08-31T08:48:08;17.80;99.90
29687;DHT22;16599;47.078;15.536;2023-08-31T08:50:37;17.90;99.90
29687;DHT22;16599;47.078;15.536;2023-08-31T08:53:04;18.10;99.90
29687;DHT22;16599;47.078;15.536;2023-08-31T08:55:32;18.20;99.90
29687;DHT22;16599;47.078;15.536;2023-08-31T08:57:59;18.00;99.90
29687;DHT22;16599;47.078;15.536;2023-08-31T09:00:27;18.10;99.90
29687;DHT22;16599;47.078;15.536;2023-08-31T09:02:55;18.10;99.90
29687;DHT22;16599;47.078;15.536;2023-08-31T09:05:23;18.20;99.90
29687;DHT22;16599;47.078;15.536;2023-08-31T09:08:07;18.20;99.90
29687;DHT22;16599;47.078;15.536;2023-08-31T09:10:41;18.30;99.90
29687;DHT22;16599;47.078;15.536;2023-08-31T09:13:14;18.30;99.90
29687;DHT22;16599;47.078;15.536;2023-08-31T09:15:47;18.40;99.90
29687;DHT22;16599;47.078;15.536;2023-08-31T09:20:47;18.60;99.90
29687;DHT22;16599;47.078;15.536;2023-08-31T09:23:15;18.50;99.90
29687;DHT22;16599;47.078;15.536;2023-08-31T09:25:46;18.60;99.90
29687;DHT22;16599;47.078;15.536;2023-08-31T09:28:16;18.90;99.90
29687;DHT22;16599;47.078;15.536;2023-08-31T09:30:46;19.10;99.90
29687;DHT22;16599;47.078;15.536;2023-08-31T09:33:15;18.70;99.90
29687;DHT22;16599;47.078;15.536;2023-08-31T09:35:51;19.00;99.90
29687;DHT22;16599;47.078;15.536;2023-08-31T09:38:19;19.10;99.90
29687;DHT22;16599;47.078;15.536;2023-08-31T09:40:46;19.00;98.00
29687;DHT22;16599;47.078;15.536;2023-08-31T09:43:21;19.00;97.40
29687;DHT22;16599;47.078;15.536;2023-08-31T09:45:50;19.10;96.90
29687;DHT22;16599;47.078;15.536;2023-08-31T09:48:20;19.10;95.30
29687;DHT22;16599;47.078;15.536;2023-08-31T09:50:48;19.30;96.60
29687;DHT22;16599;47.078;15.536;2023-08-31T09:53:16;19.40;97.20
29687;DHT22;16599;47.078;15.536;2023-08-31T09:55:43;19.40;97.70
29687;DHT22;16599;47.078;15.536;2023-08-31T09:58:11;19.40;96.40
29687;DHT22;16599;47.078;15.536;2023-08-31T10:00:42;19.50;94.90
29687;DHT22;16599;47.078;15.536;2023-08-31T10:03:10;19.60;92.70
29687;DHT22;16599;47.078;15.536;2023-08-31T10:05:46;19.70;93.70
29687;DHT22;16599;47.078;15.536;2023-08-31T10:08:14;19.60;92.60
29687;DHT22;16599;47.078;15.536;2023-08-31T10:10:42;19.60;94.60
29687;DHT22;16599;47.078;15.536;2023-08-31T10:13:09;19.80;95.70
29687;DHT22;16599;47.078;15.536;2023-08-31T10:15:38;20.00;94.10
29687;DHT22;16599;47.078;15.536;2023-08-31T10:18:07;20.10;91.00
29687;DHT22;16599;47.078;15.536;2023-08-31T10:20:34;20.00;92.70
29687;DHT22;16599;47.078;15.536;2023-08-31T10:23:06;20.00;92.30
29687;DHT22;16599;47.078;15.536;2023-08-31T10:28:29;19.90;94.00
29687;DHT22;16599;47.078;15.536;2023-08-31T10:31:09;20.00;94.60
29687;DHT22;16599;47.078;15.536;2023-08-31T10:33:41;20.30;94.00
29687;DHT22;16599;47.078;15.536;2023-08-31T10:36:18;20.50;92.50
29687;DHT22;16599;47.078;15.536;2023-08-31T10:41:25;20.00;90.10
29687;DHT22;16599;47.078;15.536;2023-08-31T10:43:54;20.20;92.90
29687;DHT22;16599;47.078;15.536;2023-08-31T10:46:26;20.40;91.20
29687;DHT22;16599;47.078;15.536;2023-08-31T10:55:58;20.50;90.50
29687;DHT22;16599;47.078;15.536;2023-08-31T10:59:00;20.80;86.30
29687;DHT22;16599;47.078;15.536;2023-08-31T11:04:27;21.10;86.20
29687;DHT22;16599;47.078;15.536;2023-08-31T11:17:24;20.90;81.50
29687;DHT22;16599;47.078;15.536;2023-08-31T11:19:56;21.30;86.30
29687;DHT22;16599;47.078;15.536;2023-08-31T11:22:24;21.10;82.50
29687;DHT22;16599;47.078;15.536;2023-08-31T11:24:51;20.50;84.50
29687;DHT22;16599;47.078;15.536;2023-08-31T11:30:48;20.60;82.50
29687;DHT22;16599;47.078;15.536;2023-08-31T11:33:15;20.80;81.50
29687;DHT22;16599;47.078;15.536;2023-08-31T11:35:43;20.30;80.00
29687;DHT22;16599;47.078;15.536;2023-08-31T11:38:12;20.30;81.90
29687;DHT22;16599;47.078;15.536;2023-08-31T11:40:39;20.20;86.00
29687;DHT22;16599;47.078;15.536;2023-08-31T11:43:07;20.40;88.30
29687;DHT22;16599;47.078;15.536;2023-08-31T11:45:36;20.70;88.00
29687;DHT22;16599;47.078;15.536;2023-08-31T11:48:05;21.10;83.80
29687;DHT22;16599;47.078;15.536;2023-08-31T11:50:32;21.20;82.80
29687;DHT22;16599;47.078;15.536;2023-08-31T11:52:59;21.60;85.00
29687;DHT22;16599;47.078;15.536;2023-08-31T11:55:26;21.60;82.70
29687;DHT22;16599;47.078;15.536;2023-08-31T12:01:42;21.10;87.30
29687;DHT22;16599;47.078;15.536;2023-08-31T12:11:07;21.30;86.50
29687;DHT22;16599;47.078;15.536;2023-08-31T12:13:34;21.60;89.10
29687;DHT22;16599;47.078;15.536;2023-08-31T12:16:01;21.90;78.30
29687;DHT22;16599;47.078;15.536;2023-08-31T12:18:31;22.00;79.50
29687;DHT22;16599;47.078;15.536;2023-08-31T12:20:58;22.00;79.70
29687;DHT22;16599;47.078;15.536;2023-08-31T12:23:26;22.20;82.50
29687;DHT22;16599;47.078;15.536;2023-08-31T12:25:54;22.30;79.40
29687;DHT22;16599;47.078;15.536;2023-08-31T12:28:23;22.50;80.20
29687;DHT22;16599;47.078;15.536;2023-08-31T12:30:54;22.40;80.30
29687;DHT22;16599;47.078;15.536;2023-08-31T12:33:23;22.40;73.20
29687;DHT22;16599;47.078;15.536;2023-08-31T12:35:51;22.40;76.10
29687;DHT22;16599;47.078;15.536;2023-08-31T12:38:18;22.70;80.10
29687;DHT22;16599;47.078;15.536;2023-08-31T12:40:46;22.70;76.40
29687;DHT22;16599;47.078;15.536;2023-08-31T12:43:13;22.50;76.80
29687;DHT22;16599;47.078;15.536;2023-08-31T12:45:43;22.40;77.40
29687;DHT22;16599;47.078;15.536;2023-08-31T12:48:10;22.40;78.20
29687;DHT22;16599;47.078;15.536;2023-08-31T12:50:37;22.50;74.50
29687;DHT22;16599;47.078;15.536;2023-08-31T12:53:04;22.40;75.60
29687;DHT22;16599;47.078;15.536;2023-08-31T12:55:31;21.90;75.10
29687;DHT22;16599;47.078;15.536;2023-08-31T12:57:58;21.60;81.60
29687;DHT22;16599;47.078;15.536;2023-08-31T13:00:25;21.50;80.30
29687;DHT22;16599;47.078;15.536;2023-08-31T13:02:52;21.70;80.60
29687;DHT22;16599;47.078;15.536;2023-08-31T13:05:19;22.10;80.10
29687;DHT22;16599;47.078;15.536;2023-08-31T13:07:47;22.20;77.90
29687;DHT22;16599;47.078;15.536;2023-08-31T13:10:14;22.30;79.60
29687;DHT22;16599;47.078;15.536;2023-08-31T13:12:41;22.50;75.40
29687;DHT22;16599;47.078;15.536;2023-08-31T13:15:08;22.00;74.90
29687;DHT22;16599;47.078;15.536;2023-08-31T13:17:35;21.60;78.90
29687;DHT22;16599;47.078;15.536;2023-08-31T13:20:03;21.50;78.80
29687;DHT22;16599;47.078;15.536;2023-08-31T13:22:31;21.30;78.90
29687;DHT22;16599;47.078;15.536;2023-08-31T13:24:58;21.10;79.60
29687;DHT22;16599;47.078;15.536;2023-08-31T13:27:25;21.10;80.50
29687;DHT22;16599;47.078;15.536;2023-08-31T13:29:52;21.20;82.30
29687;DHT22;16599;47.078;15.536;2023-08-31T13:32:19;21.30;79.80
29687;DHT22;16599;47.078;15.536;2023-08-31T13:34:46;21.10;80.20
29687;DHT22;16599;47.078;15.536;2023-08-31T13:37:13;21.20;81.80
29687;DHT22;16599;47.078;15.536;2023-08-31T13:39:40;21.50;82.20
29687;DHT22;16599;47.078;15.536;2023-08-31T13:42:07;21.80;80.50
29687;DHT22;16599;47.078;15.536;2023-08-31T13:44:34;22.00;80.90
29687;DHT22;16599;47.078;15.536;2023-08-31T13:47:02;21.60;78.80
29687;DHT22;16599;47.078;15.536;2023-08-31T13:49:30;21.10;77.30
29687;DHT22;16599;47.078;15.536;2023-08-31T13:51:58;20.80;81.90
29687;DHT22;16599;47.078;15.536;2023-08-31T13:54:25;20.90;84.90
29687;DHT22;16599;47.078;15.536;2023-08-31T13:56:55;20.90;80.50
29687;DHT22;16599;47.078;15.536;2023-08-31T13:59:22;20.80;81.90
29687;DHT22;16599;47.078;15.536;2023-08-31T14:01:49;20.70;82.40
29687;DHT22;16599;47.078;15.536;2023-08-31T14:04:16;20.70;90.10
29687;DHT22;16599;47.078;15.536;2023-08-31T14:06:43;20.80;82.70
29687;DHT22;16599;47.078;15.536;2023-08-31T14:09:10;21.40;80.20
29687;DHT22;16599;47.078;15.536;2023-08-31T14:11:37;21.70;85.40
29687;DHT22;16599;47.078;15.536;2023-08-31T14:14:04;21.70;75.60
29687;DHT22;16599;47.078;15.536;2023-08-31T14:16:32;21.30;78.10
29687;DHT22;16599;47.078;15.536;2023-08-31T14:19:00;20.90;79.00
29687;DHT22;16599;47.078;15.536;2023-08-31T14:21:27;20.80;84.40
29687;DHT22;16599;47.078;15.536;2023-08-31T14:23:54;20.80;81.80
29687;DHT22;16599;47.078;15.536;2023-08-31T14:26:23;20.80;85.40
29687;DHT22;16599;47.078;15.536;2023-08-31T14:28:51;21.00;85.90
29687;DHT22;16599;47.078;15.536;2023-08-31T14:31:19;21.30;79.20
29687;DHT22;16599;47.078;15.536;2023-08-31T14:33:46;21.80;77.40
29687;DHT22;16599;47.078;15.536;2023-08-31T14:36:15;21.80;76.00
29687;DHT22;16599;47.078;15.536;2023-08-31T14:38:42;21.50;76.00
29687;DHT22;16599;47.078;15.536;2023-08-31T14:41:09;21.60;79.50
29687;DHT22;16599;47.078;15.536;2023-08-31T14:43:37;21.70;74.70
29687;DHT22;16599;47.078;15.536;2023-08-31T14:46:04;21.80;75.50
29687;DHT22;16599;47.078;15.536;2023-08-31T14:48:31;21.90;74.00
29687;DHT22;16599;47.078;15.536;2023-08-31T14:50:59;22.00;71.70
29687;DHT22;16599;47.078;15.536;2023-08-31T14:53:27;22.00;77.70
29687;DHT22;16599;47.078;15.536;2023-08-31T14:55:54;21.60;76.00
29687;DHT22;16599;47.078;15.536;2023-08-31T14:58:22;21.10;79.60
29687;DHT22;16599;47.078;15.536;2023-08-31T15:00:49;20.90;81.60
29687;DHT22;16599;47.078;15.536;2023-08-31T15:03:16;20.80;85.50
29687;DHT22;16599;47.078;15.536;2023-08-31T15:05:44;20.80;87.80
29687;DHT22;16599;47.078;15.536;2023-08-31T15:08:10;20.70;84.10
29687;DHT22;16599;47.078;15.536;2023-08-31T15:10:39;20.60;86.40
29687;DHT22;16599;47.078;15.536;2023-08-31T15:13:07;20.50;81.20
29687;DHT22;16599;47.078;15.536;2023-08-31T15:15:34;20.50;80.40
29687;DHT22;16599;47.078;15.536;2023-08-31T15:18:01;20.40;91.40
29687;DHT22;16599;47.078;15.536;2023-08-31T15:20:29;20.30;90.90
29687;DHT22;16599;47.078;15.536;2023-08-31T15:22:56;20.20;91.10
29687;DHT22;16599;47.078;15.536;2023-08-31T15:25:23;20.20;91.10
29687;DHT22;16599;47.078;15.536;2023-08-31T15:27:50;20.20;90.00
29687;DHT22;16599;47.078;15.536;2023-08-31T15:30:17;20.10;85.90
29687;DHT22;16599;47.078;15.536;2023-08-31T15:32:44;20.00;90.50
29687;DHT22;16599;47.078;15.536;2023-08-31T15:35:11;19.90;88.90
29687;DHT22;16599;47.078;15.536;2023-08-31T15:37:38;19.80;92.90
29687;DHT22;16599;47.078;15.536;2023-08-31T15:40:05;19.70;92.10
29687;DHT22;16599;47.078;15.536;2023-08-31T15:42:32;19.60;92.80
29687;DHT22;16599;47.078;15.536;2023-08-31T15:45:01;19.50;93.20
29687;DHT22;16599;47.078;15.536;2023-08-31T15:47:29;19.40;94.40
29687;DHT22;16599;47.078;15.536;2023-08-31T15:49:56;19.50;90.40
29687;DHT22;16599;47.078;15.536;2023-08-31T15:52:23;19.40;93.10
29687;DHT22;16599;47.078;15.536;2023-08-31T15:54:50;19.40;94.50
29687;DHT22;16599;47.078;15.536;2023-08-31T15:57:17;19.40;94.70
29687;DHT22;16599;47.078;15.536;2023-08-31T15:59:46;19.50;95.00
29687;DHT22;16599;47.078;15.536;2023-08-31T16:02:14;19.40;95.70
29687;DHT22;16599;47.078;15.536;2023-08-31T16:04:44;19.40;95.90
29687;DHT22;16599;47.078;15.536;2023-08-31T16:18:11;19.10;97.80
29687;DHT22;16599;47.078;15.536;2023-08-31T16:28:35;18.90;98.80
29687;DHT22;16599;47.078;15.536;2023-08-31T16:31:02;18.80;99.10
29687;DHT22;16599;47.078;15.536;2023-08-31T16:33:32;18.80;99.50